HUI weather

Phu Bai Airport
Hue, Bac Ninh Province, Vietnam

Public forecast

Using degrees Celsius for public forecast. Weather courtesy of forecast.io.

METAR (pilot weather report)

Retrieved 2019/04/18 18:30 UTC (4 minutes ago):

VVPB 181830Z VRB02KT 9999 FEW020 28/26 Q1005 NOSIG

TAF (pilot weather forecast)

Retrieved 2019/04/18 18:00 UTC (34 minutes ago):

TAF VVPB 181700Z 1818/1918 20004KT 9999 FEW020 BECMG 1904/1905 07010KT TEMPO 1906/1908 TS FEW015 FEW017CB SCT050 TEMPO 1908/1911 3500 TSRA SCT010 SCT017CB BKN050 BECMG 1913/1914 22003KT